sensor_id;sensor_type;location;lat;lon;timestamp;temperature;humidity
4518;DHT22;2271;49.464;11.070;2023-04-25T00:01:01;11.80;99.90
4518;DHT22;2271;49.464;11.070;2023-04-25T00:03:27;11.80;99.90
4518;DHT22;2271;49.464;11.070;2023-04-25T00:05:54;11.80;99.90
4518;DHT22;2271;49.464;11.070;2023-04-25T00:08:22;11.80;99.90
4518;DHT22;2271;49.464;11.070;2023-04-25T00:10:47;11.70;99.90
4518;DHT22;2271;49.464;11.070;2023-04-25T00:13:14;11.80;99.90
4518;DHT22;2271;49.464;11.070;2023-04-25T00:15:42;11.70;99.90
4518;DHT22;2271;49.464;11.070;2023-04-25T00:18:08;11.70;99.90
4518;DHT22;2271;49.464;11.070;2023-04-25T00:20:35;11.70;99.90
4518;DHT22;2271;49.464;11.070;2023-04-25T00:23:01;11.70;99.90
4518;DHT22;2271;49.464;11.070;2023-04-25T00:25:26;11.80;99.90
4518;DHT22;2271;49.464;11.070;2023-04-25T00:27:52;11.80;99.90
4518;DHT22;2271;49.464;11.070;2023-04-25T00:30:17;11.80;99.90
4518;DHT22;2271;49.464;11.070;2023-04-25T00:32:43;11.70;99.90
4518;DHT22;2271;49.464;11.070;2023-04-25T00:35:09;11.70;99.90
4518;DHT22;2271;49.464;11.070;2023-04-25T00:37:35;11.70;99.90
4518;DHT22;2271;49.464;11.070;2023-04-25T00:40:01;11.70;99.90
4518;DHT22;2271;49.464;11.070;2023-04-25T00:42:27;11.60;99.90
4518;DHT22;2271;49.464;11.070;2023-04-25T00:44:53;11.70;99.90
4518;DHT22;2271;49.464;11.070;2023-04-25T00:47:19;11.70;99.90
4518;DHT22;2271;49.464;11.070;2023-04-25T00:49:46;11.70;99.90
4518;DHT22;2271;49.464;11.070;2023-04-25T00:52:11;11.70;99.90
4518;DHT22;2271;49.464;11.070;2023-04-25T00:54:37;11.80;99.90
4518;DHT22;2271;49.464;11.070;2023-04-25T00:57:04;11.80;99.90
4518;DHT22;2271;49.464;11.070;2023-04-25T00:59:30;11.70;99.90
4518;DHT22;2271;49.464;11.070;2023-04-25T01:01:56;11.80;99.90
4518;DHT22;2271;49.464;11.070;2023-04-25T01:04:22;11.80;99.90
4518;DHT22;2271;49.464;11.070;2023-04-25T01:06:48;11.80;99.90
4518;DHT22;2271;49.464;11.070;2023-04-25T01:09:13;11.80;99.90
4518;DHT22;2271;49.464;11.070;2023-04-25T01:11:40;11.80;99.90
4518;DHT22;2271;49.464;11.070;2023-04-25T01:14:06;11.80;99.90
4518;DHT22;2271;49.464;11.070;2023-04-25T01:16:32;11.70;99.90
4518;DHT22;2271;49.464;11.070;2023-04-25T01:18:58;11.80;99.90
4518;DHT22;2271;49.464;11.070;2023-04-25T01:21:24;11.70;99.90
4518;DHT22;2271;49.464;11.070;2023-04-25T01:23:53;11.70;99.90
4518;DHT22;2271;49.464;11.070;2023-04-25T01:26:19;11.70;99.90
4518;DHT22;2271;49.464;11.070;2023-04-25T01:28:46;11.70;99.90
4518;DHT22;2271;49.464;11.070;2023-04-25T01:31:13;11.70;99.90
4518;DHT22;2271;49.464;11.070;2023-04-25T01:33:39;11.60;99.90
4518;DHT22;2271;49.464;11.070;2023-04-25T01:36:05;11.60;99.90
4518;DHT22;2271;49.464;11.070;2023-04-25T01:38:31;11.60;99.90
4518;DHT22;2271;49.464;11.070;2023-04-25T01:40:57;11.50;99.90
4518;DHT22;2271;49.464;11.070;2023-04-25T01:43:23;11.50;99.90
4518;DHT22;2271;49.464;11.070;2023-04-25T01:45:50;11.50;99.90
4518;DHT22;2271;49.464;11.070;2023-04-25T01:48:15;11.50;99.90
4518;DHT22;2271;49.464;11.070;2023-04-25T01:50:41;11.40;99.90
4518;DHT22;2271;49.464;11.070;2023-04-25T01:53:09;11.40;99.90
4518;DHT22;2271;49.464;11.070;2023-04-25T01:55:36;11.40;99.90
4518;DHT22;2271;49.464;11.070;2023-04-25T01:58:05;11.40;99.90
4518;DHT22;2271;49.464;11.070;2023-04-25T02:00:38;11.50;99.90
4518;DHT22;2271;49.464;11.070;2023-04-25T02:03:05;11.50;99.90
4518;DHT22;2271;49.464;11.070;2023-04-25T02:05:38;11.50;99.90
4518;DHT22;2271;49.464;11.070;2023-04-25T02:08:05;11.50;99.90
4518;DHT22;2271;49.464;11.070;2023-04-25T02:10:31;11.50;99.90
4518;DHT22;2271;49.464;11.070;2023-04-25T02:12:57;11.50;99.90
4518;DHT22;2271;49.464;11.070;2023-04-25T02:15:23;11.50;99.90
4518;DHT22;2271;49.464;11.070;2023-04-25T02:17:49;11.50;99.90
4518;DHT22;2271;49.464;11.070;2023-04-25T02:20:15;11.50;99.90
4518;DHT22;2271;49.464;11.070;2023-04-25T02:22:41;11.50;99.90
4518;DHT22;2271;49.464;11.070;2023-04-25T02:25:08;11.50;99.90
4518;DHT22;2271;49.464;11.070;2023-04-25T02:27:34;11.50;99.90
4518;DHT22;2271;49.464;11.070;2023-04-25T02:30:00;11.50;99.90
4518;DHT22;2271;49.464;11.070;2023-04-25T02:32:26;11.40;99.90
4518;DHT22;2271;49.464;11.070;2023-04-25T02:34:52;11.40;99.90
4518;DHT22;2271;49.464;11.070;2023-04-25T02:37:18;11.40;99.90
4518;DHT22;2271;49.464;11.070;2023-04-25T02:39:43;11.40;99.90
4518;DHT22;2271;49.464;11.070;2023-04-25T02:42:09;12.00;99.90
4518;DHT22;2271;49.464;11.070;2023-04-25T02:44:35;12.50;99.90
4518;DHT22;2271;49.464;11.070;2023-04-25T02:47:00;12.90;99.90
4518;DHT22;2271;49.464;11.070;2023-04-25T02:49:26;13.10;99.90
4518;DHT22;2271;49.464;11.070;2023-04-25T02:51:51;13.70;99.90
4518;DHT22;2271;49.464;11.070;2023-04-25T02:54:17;13.80;99.90
4518;DHT22;2271;49.464;11.070;2023-04-25T02:56:43;13.20;99.90
4518;DHT22;2271;49.464;11.070;2023-04-25T02:59:08;12.70;99.90
4518;DHT22;2271;49.464;11.070;2023-04-25T03:01:34;12.40;99.90
4518;DHT22;2271;49.464;11.070;2023-04-25T03:03:59;12.20;99.90
4518;DHT22;2271;49.464;11.070;2023-04-25T03:06:25;12.00;99.90
4518;DHT22;2271;49.464;11.070;2023-04-25T03:08:51;11.80;99.90
4518;DHT22;2271;49.464;11.070;2023-04-25T03:11:17;11.80;99.90
4518;DHT22;2271;49.464;11.070;2023-04-25T03:13:45;11.70;99.90
4518;DHT22;2271;49.464;11.070;2023-04-25T03:16:11;11.70;99.90
4518;DHT22;2271;49.464;11.070;2023-04-25T03:18:36;11.60;99.90
4518;DHT22;2271;49.464;11.070;2023-04-25T03:21:02;11.60;99.90
4518;DHT22;2271;49.464;11.070;2023-04-25T03:23:28;11.50;99.90
4518;DHT22;2271;49.464;11.070;2023-04-25T03:25:53;11.50;99.90
4518;DHT22;2271;49.464;11.070;2023-04-25T03:28:19;11.40;99.90
4518;DHT22;2271;49.464;11.070;2023-04-25T03:30:45;11.40;99.90
4518;DHT22;2271;49.464;11.070;2023-04-25T03:33:11;11.30;99.90
4518;DHT22;2271;49.464;11.070;2023-04-25T03:35:36;11.30;99.90
4518;DHT22;2271;49.464;11.070;2023-04-25T03:38:02;11.30;99.90
4518;DHT22;2271;49.464;11.070;2023-04-25T03:40:27;11.20;99.90
4518;DHT22;2271;49.464;11.070;2023-04-25T03:42:53;11.20;99.90
4518;DHT22;2271;49.464;11.070;2023-04-25T03:45:19;11.20;99.90
4518;DHT22;2271;49.464;11.070;2023-04-25T03:47:44;11.20;99.90
4518;DHT22;2271;49.464;11.070;2023-04-25T03:50:10;11.10;99.90
4518;DHT22;2271;49.464;11.070;2023-04-25T03:52:36;11.10;99.90
4518;DHT22;2271;49.464;11.070;2023-04-25T03:55:01;11.10;99.90
4518;DHT22;2271;49.464;11.070;2023-04-25T03:57:27;11.10;99.90
4518;DHT22;2271;49.464;11.070;2023-04-25T03:59:52;11.10;99.90
4518;DHT22;2271;49.464;11.070;2023-04-25T04:02:18;11.10;99.90
4518;DHT22;2271;49.464;11.070;2023-04-25T04:04:44;11.10;99.90
4518;DHT22;2271;49.464;11.070;2023-04-25T04:07:09;11.10;99.90
4518;DHT22;2271;49.464;11.070;2023-04-25T04:09:35;11.10;99.90
4518;DHT22;2271;49.464;11.070;2023-04-25T04:12:01;11.10;99.90
4518;DHT22;2271;49.464;11.070;2023-04-25T04:14:27;11.10;99.90
4518;DHT22;2271;49.464;11.070;2023-04-25T04:16:52;11.10;99.90
4518;DHT22;2271;49.464;11.070;2023-04-25T04:19:18;11.10;99.90
4518;DHT22;2271;49.464;11.070;2023-04-25T04:21:43;11.20;99.90
4518;DHT22;2271;49.464;11.070;2023-04-25T04:24:09;11.10;99.90
4518;DHT22;2271;49.464;11.070;2023-04-25T04:26:35;11.00;99.90
4518;DHT22;2271;49.464;11.070;2023-04-25T04:29:02;11.00;99.90
4518;DHT22;2271;49.464;11.070;2023-04-25T04:31:28;11.00;99.90
4518;DHT22;2271;49.464;11.070;2023-04-25T04:33:55;11.00;99.90
4518;DHT22;2271;49.464;11.070;2023-04-25T04:36:21;11.00;99.90
4518;DHT22;2271;49.464;11.070;2023-04-25T04:38:48;11.00;99.90
4518;DHT22;2271;49.464;11.070;2023-04-25T04:41:14;11.00;99.90
4518;DHT22;2271;49.464;11.070;2023-04-25T04:43:39;11.00;99.90
4518;DHT22;2271;49.464;11.070;2023-04-25T04:46:05;11.00;99.90
4518;DHT22;2271;49.464;11.070;2023-04-25T04:48:32;11.00;99.90
4518;DHT22;2271;49.464;11.070;2023-04-25T04:50:59;11.00;99.90
4518;DHT22;2271;49.464;11.070;2023-04-25T04:53:25;11.00;99.90
4518;DHT22;2271;49.464;11.070;2023-04-25T04:55:51;11.00;99.90
4518;DHT22;2271;49.464;11.070;2023-04-25T04:58:17;11.00;99.90
4518;DHT22;2271;49.464;11.070;2023-04-25T05:00:42;11.00;99.90
4518;DHT22;2271;49.464;11.070;2023-04-25T05:03:08;11.00;99.90
4518;DHT22;2271;49.464;11.070;2023-04-25T05:05:34;10.90;99.90
4518;DHT22;2271;49.464;11.070;2023-04-25T05:07:59;10.90;99.90
4518;DHT22;2271;49.464;11.070;2023-04-25T05:10:25;10.80;99.90
4518;DHT22;2271;49.464;11.070;2023-04-25T05:12:51;10.80;99.90
4518;DHT22;2271;49.464;11.070;2023-04-25T05:15:17;10.80;99.90
4518;DHT22;2271;49.464;11.070;2023-04-25T05:17:42;10.90;99.90
4518;DHT22;2271;49.464;11.070;2023-04-25T05:20:08;10.90;99.90
4518;DHT22;2271;49.464;11.070;2023-04-25T05:22:35;11.00;99.90
4518;DHT22;2271;49.464;11.070;2023-04-25T05:25:01;11.00;99.90
4518;DHT22;2271;49.464;11.070;2023-04-25T05:27:26;11.00;99.90
4518;DHT22;2271;49.464;11.070;2023-04-25T05:29:52;11.10;99.90
4518;DHT22;2271;49.464;11.070;2023-04-25T05:32:18;11.10;99.90
4518;DHT22;2271;49.464;11.070;2023-04-25T05:34:43;11.10;99.90
4518;DHT22;2271;49.464;11.070;2023-04-25T05:37:09;11.10;99.90
4518;DHT22;2271;49.464;11.070;2023-04-25T05:39:35;11.10;99.90
4518;DHT22;2271;49.464;11.070;2023-04-25T05:42:01;11.10;99.90
4518;DHT22;2271;49.464;11.070;2023-04-25T05:44:26;11.20;99.90
4518;DHT22;2271;49.464;11.070;2023-04-25T05:46:52;11.10;99.90
4518;DHT22;2271;49.464;11.070;2023-04-25T05:49:18;11.10;99.90
4518;DHT22;2271;49.464;11.070;2023-04-25T05:51:43;10.90;99.90
4518;DHT22;2271;49.464;11.070;2023-04-25T05:54:09;10.90;99.90
4518;DHT22;2271;49.464;11.070;2023-04-25T05:56:35;11.00;99.90
4518;DHT22;2271;49.464;11.070;2023-04-25T05:59:00;11.00;99.90
4518;DHT22;2271;49.464;11.070;2023-04-25T06:01:26;11.00;99.90
4518;DHT22;2271;49.464;11.070;2023-04-25T06:03:52;11.00;99.90
4518;DHT22;2271;49.464;11.070;2023-04-25T06:06:18;11.00;99.90
4518;DHT22;2271;49.464;11.070;2023-04-25T06:08:43;11.00;99.90
4518;DHT22;2271;49.464;11.070;2023-04-25T06:11:09;11.00;99.90
4518;DHT22;2271;49.464;11.070;2023-04-25T06:13:35;11.00;99.90
4518;DHT22;2271;49.464;11.070;2023-04-25T06:16:00;11.00;99.90
4518;DHT22;2271;49.464;11.070;2023-04-25T06:18:26;11.00;99.90
4518;DHT22;2271;49.464;11.070;2023-04-25T06:20:51;11.00;99.90
4518;DHT22;2271;49.464;11.070;2023-04-25T06:23:17;11.00;99.90
4518;DHT22;2271;49.464;11.070;2023-04-25T06:25:43;10.90;99.90
4518;DHT22;2271;49.464;11.070;2023-04-25T06:28:09;10.80;99.90
4518;DHT22;2271;49.464;11.070;2023-04-25T06:30:34;10.80;99.90
4518;DHT22;2271;49.464;11.070;2023-04-25T06:33:00;10.80;99.90
4518;DHT22;2271;49.464;11.070;2023-04-25T06:35:26;10.70;99.90
4518;DHT22;2271;49.464;11.070;2023-04-25T06:37:51;10.80;99.90
4518;DHT22;2271;49.464;11.070;2023-04-25T06:40:17;10.80;99.90
4518;DHT22;2271;49.464;11.070;2023-04-25T06:42:43;10.80;99.90
4518;DHT22;2271;49.464;11.070;2023-04-25T06:45:08;10.80;99.90
4518;DHT22;2271;49.464;11.070;2023-04-25T06:47:34;10.80;99.90
4518;DHT22;2271;49.464;11.070;2023-04-25T06:50:00;10.80;99.90
4518;DHT22;2271;49.464;11.070;2023-04-25T06:52:25;10.80;99.90
4518;DHT22;2271;49.464;11.070;2023-04-25T06:54:51;11.00;99.90
4518;DHT22;2271;49.464;11.070;2023-04-25T06:57:16;11.10;99.90
4518;DHT22;2271;49.464;11.070;2023-04-25T06:59:42;11.20;99.90
4518;DHT22;2271;49.464;11.070;2023-04-25T07:02:08;11.30;99.90
4518;DHT22;2271;49.464;11.070;2023-04-25T07:04:33;11.40;99.90
4518;DHT22;2271;49.464;11.070;2023-04-25T07:06:59;11.40;99.90
4518;DHT22;2271;49.464;11.070;2023-04-25T07:09:26;11.50;99.90
4518;DHT22;2271;49.464;11.070;2023-04-25T07:11:51;11.60;99.90
4518;DHT22;2271;49.464;11.070;2023-04-25T07:14:17;11.60;99.90
4518;DHT22;2271;49.464;11.070;2023-04-25T07:16:43;11.70;99.90
4518;DHT22;2271;49.464;11.070;2023-04-25T07:19:08;11.50;99.90
4518;DHT22;2271;49.464;11.070;2023-04-25T07:21:34;11.40;99.90
4518;DHT22;2271;49.464;11.070;2023-04-25T07:24:01;11.30;99.90
4518;DHT22;2271;49.464;11.070;2023-04-25T07:26:27;11.20;99.90
4518;DHT22;2271;49.464;11.070;2023-04-25T07:28:53;11.20;99.90
4518;DHT22;2271;49.464;11.070;2023-04-25T07:31:19;11.00;99.90
4518;DHT22;2271;49.464;11.070;2023-04-25T07:33:45;10.90;99.90
4518;DHT22;2271;49.464;11.070;2023-04-25T07:36:11;10.90;99.90
4518;DHT22;2271;49.464;11.070;2023-04-25T07:38:38;11.00;99.90
4518;DHT22;2271;49.464;11.070;2023-04-25T07:41:04;11.00;99.90
4518;DHT22;2271;49.464;11.070;2023-04-25T07:43:29;10.90;99.90
4518;DHT22;2271;49.464;11.070;2023-04-25T07:45:56;10.90;99.90
4518;DHT22;2271;49.464;11.070;2023-04-25T07:48:22;10.90;99.90
4518;DHT22;2271;49.464;11.070;2023-04-25T07:50:47;10.80;99.90
4518;DHT22;2271;49.464;11.070;2023-04-25T07:53:13;10.80;99.90
4518;DHT22;2271;49.464;11.070;2023-04-25T07:55:39;10.80;99.90
4518;DHT22;2271;49.464;11.070;2023-04-25T07:58:08;10.70;99.90
4518;DHT22;2271;49.464;11.070;2023-04-25T08:00:34;10.70;99.90
4518;DHT22;2271;49.464;11.070;2023-04-25T08:03:00;10.80;99.90
4518;DHT22;2271;49.464;11.070;2023-04-25T08:05:25;10.70;99.90
4518;DHT22;2271;49.464;11.070;2023-04-25T08:07:51;10.70;99.90
4518;DHT22;2271;49.464;11.070;2023-04-25T08:10:17;10.70;99.90
4518;DHT22;2271;49.464;11.070;2023-04-25T08:12:42;10.60;99.90
4518;DHT22;2271;49.464;11.070;2023-04-25T08:15:08;10.50;99.90
4518;DHT22;2271;49.464;11.070;2023-04-25T08:17:34;10.50;99.90
4518;DHT22;2271;49.464;11.070;2023-04-25T08:20:00;10.50;99.90
4518;DHT22;2271;49.464;11.070;2023-04-25T08:22:25;10.60;99.90
4518;DHT22;2271;49.464;11.070;2023-04-25T08:24:51;10.60;99.90
4518;DHT22;2271;49.464;11.070;2023-04-25T08:27:18;10.70;99.90
4518;DHT22;2271;49.464;11.070;2023-04-25T08:29:44;10.70;99.90
4518;DHT22;2271;49.464;11.070;2023-04-25T08:32:09;10.80;99.90
4518;DHT22;2271;49.464;11.070;2023-04-25T08:34:35;10.90;99.90
4518;DHT22;2271;49.464;11.070;2023-04-25T08:37:02;11.00;99.90
4518;DHT22;2271;49.464;11.070;2023-04-25T08:39:29;11.10;99.90
4518;DHT22;2271;49.464;11.070;2023-04-25T08:41:56;11.30;99.90
4518;DHT22;2271;49.464;11.070;2023-04-25T08:44:22;11.50;99.90
4518;DHT22;2271;49.464;11.070;2023-04-25T08:46:49;11.60;99.90
4518;DHT22;2271;49.464;11.070;2023-04-25T08:49:17;11.70;99.90
4518;DHT22;2271;49.464;11.070;2023-04-25T08:51:47;11.90;99.90
4518;DHT22;2271;49.464;11.070;2023-04-25T08:54:14;12.00;99.90
4518;DHT22;2271;49.464;11.070;2023-04-25T08:56:43;12.10;99.90
4518;DHT22;2271;49.464;11.070;2023-04-25T08:59:11;12.20;99.90
4518;DHT22;2271;49.464;11.070;2023-04-25T09:01:36;12.20;99.90
4518;DHT22;2271;49.464;11.070;2023-04-25T09:04:02;12.40;99.90
4518;DHT22;2271;49.464;11.070;2023-04-25T09:06:31;12.40;99.90
4518;DHT22;2271;49.464;11.070;2023-04-25T09:09:04;12.20;99.90
4518;DHT22;2271;49.464;11.070;2023-04-25T09:11:34;12.00;99.90
4518;DHT22;2271;49.464;11.070;2023-04-25T09:14:30;11.80;99.90
4518;DHT22;2271;49.464;11.070;2023-04-25T09:22:00;11.50;99.90
4518;DHT22;2271;49.464;11.070;2023-04-25T09:24:37;11.60;99.90
4518;DHT22;2271;49.464;11.070;2023-04-25T09:27:05;12.00;99.90
4518;DHT22;2271;49.464;11.070;2023-04-25T09:29:32;12.50;99.90
4518;DHT22;2271;49.464;11.070;2023-04-25T09:34:43;13.70;99.90
4518;DHT22;2271;49.464;11.070;2023-04-25T09:37:10;14.20;99.90
4518;DHT22;2271;49.464;11.070;2023-04-25T09:39:37;14.50;99.90
4518;DHT22;2271;49.464;11.070;2023-04-25T09:42:04;14.70;99.90
4518;DHT22;2271;49.464;11.070;2023-04-25T09:44:30;15.00;99.90
4518;DHT22;2271;49.464;11.070;2023-04-25T09:46:56;15.00;99.90
4518;DHT22;2271;49.464;11.070;2023-04-25T09:49:22;15.10;99.90
4518;DHT22;2271;49.464;11.070;2023-04-25T09:51:55;15.10;99.90
4518;DHT22;2271;49.464;11.070;2023-04-25T09:54:22;15.20;99.90
4518;DHT22;2271;49.464;11.070;2023-04-25T09:56:51;15.40;99.90
4518;DHT22;2271;49.464;11.070;2023-04-25T09:59:21;15.40;99.90
4518;DHT22;2271;49.464;11.070;2023-04-25T10:01:49;15.10;99.90
4518;DHT22;2271;49.464;11.070;2023-04-25T10:04:24;15.20;99.90
4518;DHT22;2271;49.464;11.070;2023-04-25T10:06:54;15.30;99.90
4518;DHT22;2271;49.464;11.070;2023-04-25T10:09:24;15.50;99.90
4518;DHT22;2271;49.464;11.070;2023-04-25T10:11:51;15.60;99.90
4518;DHT22;2271;49.464;11.070;2023-04-25T10:14:18;15.60;99.90
4518;DHT22;2271;49.464;11.070;2023-04-25T10:16:45;15.10;99.90
4518;DHT22;2271;49.464;11.070;2023-04-25T10:19:11;14.90;99.90
4518;DHT22;2271;49.464;11.070;2023-04-25T10:21:46;14.60;99.90
4518;DHT22;2271;49.464;11.070;2023-04-25T10:24:14;14.50;99.90
4518;DHT22;2271;49.464;11.070;2023-04-25T10:26:40;14.30;99.90
4518;DHT22;2271;49.464;11.070;2023-04-25T10:29:06;14.10;99.90
4518;DHT22;2271;49.464;11.070;2023-04-25T10:31:32;14.00;99.90
4518;DHT22;2271;49.464;11.070;2023-04-25T10:34:00;13.80;99.90
4518;DHT22;2271;49.464;11.070;2023-04-25T10:36:31;13.70;99.90
4518;DHT22;2271;49.464;11.070;2023-04-25T10:39:05;13.50;99.90
4518;DHT22;2271;49.464;11.070;2023-04-25T10:41:51;13.50;99.90
4518;DHT22;2271;49.464;11.070;2023-04-25T10:44:17;13.60;99.90
4518;DHT22;2271;49.464;11.070;2023-04-25T10:46:44;13.70;99.90
4518;DHT22;2271;49.464;11.070;2023-04-25T10:49:11;13.70;99.90
4518;DHT22;2271;49.464;11.070;2023-04-25T10:54:43;13.80;99.90
4518;DHT22;2271;49.464;11.070;2023-04-25T10:57:41;14.20;99.90
4518;DHT22;2271;49.464;11.070;2023-04-25T11:00:13;14.40;99.90
4518;DHT22;2271;49.464;11.070;2023-04-25T11:05:11;15.20;99.90
4518;DHT22;2271;49.464;11.070;2023-04-25T11:07:48;15.20;99.90
4518;DHT22;2271;49.464;11.070;2023-04-25T11:10:15;15.10;99.90
4518;DHT22;2271;49.464;11.070;2023-04-25T11:12:40;14.90;99.90
4518;DHT22;2271;49.464;11.070;2023-04-25T11:15:07;14.70;99.90
4518;DHT22;2271;49.464;11.070;2023-04-25T11:17:33;14.60;99.90
4518;DHT22;2271;49.464;11.070;2023-04-25T11:20:00;14.30;99.90
4518;DHT22;2271;49.464;11.070;2023-04-25T11:22:27;14.10;99.90
4518;DHT22;2271;49.464;11.070;2023-04-25T11:24:53;14.00;99.90
4518;DHT22;2271;49.464;11.070;2023-04-25T11:27:18;13.90;99.90
4518;DHT22;2271;49.464;11.070;2023-04-25T11:29:44;13.90;99.90
4518;DHT22;2271;49.464;11.070;2023-04-25T11:32:14;14.00;99.90
4518;DHT22;2271;49.464;11.070;2023-04-25T11:34:43;14.00;99.90
4518;DHT22;2271;49.464;11.070;2023-04-25T11:37:09;14.10;99.90
4518;DHT22;2271;49.464;11.070;2023-04-25T11:39:36;14.30;99.90
4518;DHT22;2271;49.464;11.070;2023-04-25T11:42:04;14.60;99.90
4518;DHT22;2271;49.464;11.070;2023-04-25T11:44:31;14.70;99.90
4518;DHT22;2271;49.464;11.070;2023-04-25T11:46:56;14.60;99.90
4518;DHT22;2271;49.464;11.070;2023-04-25T11:49:22;14.40;99.90
4518;DHT22;2271;49.464;11.070;2023-04-25T11:51:50;14.30;99.90
4518;DHT22;2271;49.464;11.070;2023-04-25T11:54:16;14.40;99.90
4518;DHT22;2271;49.464;11.070;2023-04-25T11:56:45;14.30;99.90
4518;DHT22;2271;49.464;11.070;2023-04-25T11:59:11;14.50;99.90
4518;DHT22;2271;49.464;11.070;2023-04-25T12:01:39;14.70;99.90
4518;DHT22;2271;49.464;11.070;2023-04-25T12:04:13;14.80;99.90
4518;DHT22;2271;49.464;11.070;2023-04-25T12:06:39;15.10;99.90
4518;DHT22;2271;49.464;11.070;2023-04-25T12:09:11;15.30;99.90
4518;DHT22;2271;49.464;11.070;2023-04-25T12:11:43;15.40;99.90
4518;DHT22;2271;49.464;11.070;2023-04-25T12:14:10;15.30;99.90
4518;DHT22;2271;49.464;11.070;2023-04-25T12:16:48;15.30;99.90
4518;DHT22;2271;49.464;11.070;2023-04-25T12:19:14;15.10;99.90
4518;DHT22;2271;49.464;11.070;2023-04-25T12:21:41;14.60;99.90
4518;DHT22;2271;49.464;11.070;2023-04-25T12:24:15;14.40;99.90
4518;DHT22;2271;49.464;11.070;2023-04-25T12:29:20;14.40;99.90
4518;DHT22;2271;49.464;11.070;2023-04-25T12:31:47;14.50;99.90
4518;DHT22;2271;49.464;11.070;2023-04-25T12:34:13;14.60;99.90
4518;DHT22;2271;49.464;11.070;2023-04-25T12:36:38;14.60;99.90
4518;DHT22;2271;49.464;11.070;2023-04-25T12:39:04;14.50;99.90
4518;DHT22;2271;49.464;11.070;2023-04-25T12:41:30;14.50;99.90
4518;DHT22;2271;49.464;11.070;2023-04-25T12:43:56;14.60;99.90
4518;DHT22;2271;49.464;11.070;2023-04-25T12:46:22;14.50;99.90
4518;DHT22;2271;49.464;11.070;2023-04-25T12:48:50;14.30;99.90
4518;DHT22;2271;49.464;11.070;2023-04-25T12:51:16;14.20;99.90
4518;DHT22;2271;49.464;11.070;2023-04-25T12:53:41;14.10;99.90
4518;DHT22;2271;49.464;11.070;2023-04-25T12:56:10;14.10;99.90
4518;DHT22;2271;49.464;11.070;2023-04-25T12:58:36;14.00;99.90
4518;DHT22;2271;49.464;11.070;2023-04-25T13:01:02;14.00;99.90
4518;DHT22;2271;49.464;11.070;2023-04-25T13:03:27;14.10;99.90
4518;DHT22;2271;49.464;11.070;2023-04-25T13:05:53;14.30;99.90
4518;DHT22;2271;49.464;11.070;2023-04-25T13:08:19;14.40;99.90
4518;DHT22;2271;49.464;11.070;2023-04-25T13:10:45;14.60;99.90
4518;DHT22;2271;49.464;11.070;2023-04-25T13:13:11;14.50;99.90
4518;DHT22;2271;49.464;11.070;2023-04-25T13:15:36;14.60;99.90
4518;DHT22;2271;49.464;11.070;2023-04-25T13:18:03;14.60;99.90
4518;DHT22;2271;49.464;11.070;2023-04-25T13:20:30;14.60;99.90
4518;DHT22;2271;49.464;11.070;2023-04-25T13:22:57;14.80;99.90
4518;DHT22;2271;49.464;11.070;2023-04-25T13:25:22;14.60;99.90
4518;DHT22;2271;49.464;11.070;2023-04-25T13:27:48;14.50;99.90
4518;DHT22;2271;49.464;11.070;2023-04-25T13:30:14;14.20;99.90
4518;DHT22;2271;49.464;11.070;2023-04-25T13:32:40;14.20;99.90
4518;DHT22;2271;49.464;11.070;2023-04-25T13:35:11;14.20;99.90
4518;DHT22;2271;49.464;11.070;2023-04-25T13:37:37;14.20;99.90
4518;DHT22;2271;49.464;11.070;2023-04-25T13:40:05;14.10;99.90
4518;DHT22;2271;49.464;11.070;2023-04-25T13:42:35;14.10;99.90
4518;DHT22;2271;49.464;11.070;2023-04-25T13:45:01;14.10;99.90
4518;DHT22;2271;49.464;11.070;2023-04-25T13:47:27;14.00;99.90
4518;DHT22;2271;49.464;11.070;2023-04-25T13:49:53;14.00;99.90
4518;DHT22;2271;49.464;11.070;2023-04-25T13:52:18;13.80;99.90
4518;DHT22;2271;49.464;11.070;2023-04-25T13:54:44;13.60;99.90
4518;DHT22;2271;49.464;11.070;2023-04-25T13:57:10;13.50;99.90
4518;DHT22;2271;49.464;11.070;2023-04-25T13:59:37;13.40;99.90
4518;DHT22;2271;49.464;11.070;2023-04-25T14:02:03;13.40;99.90
4518;DHT22;2271;49.464;11.070;2023-04-25T14:04:28;13.40;99.90
4518;DHT22;2271;49.464;11.070;2023-04-25T14:06:55;13.50;99.90
4518;DHT22;2271;49.464;11.070;2023-04-25T14:09:21;13.40;99.90
4518;DHT22;2271;49.464;11.070;2023-04-25T14:11:54;13.40;99.90
4518;DHT22;2271;49.464;11.070;2023-04-25T14:14:21;13.50;99.90
4518;DHT22;2271;49.464;11.070;2023-04-25T14:16:47;13.50;99.90
4518;DHT22;2271;49.464;11.070;2023-04-25T14:19:14;13.60;99.90
4518;DHT22;2271;49.464;11.070;2023-04-25T14:21:40;13.60;99.90
4518;DHT22;2271;49.464;11.070;2023-04-25T14:24:06;13.50;99.90
4518;DHT22;2271;49.464;11.070;2023-04-25T14:26:33;13.40;99.90
4518;DHT22;2271;49.464;11.070;2023-04-25T14:28:59;13.40;99.90
4518;DHT22;2271;49.464;11.070;2023-04-25T14:31:25;13.40;99.90
4518;DHT22;2271;49.464;11.070;2023-04-25T14:33:51;13.30;99.90
4518;DHT22;2271;49.464;11.070;2023-04-25T14:36:16;13.20;99.90
4518;DHT22;2271;49.464;11.070;2023-04-25T14:38:42;13.00;99.90
4518;DHT22;2271;49.464;11.070;2023-04-25T14:41:08;13.00;99.90
4518;DHT22;2271;49.464;11.070;2023-04-25T14:43:34;13.00;99.90
4518;DHT22;2271;49.464;11.070;2023-04-25T14:46:00;12.90;99.90
4518;DHT22;2271;49.464;11.070;2023-04-25T14:48:27;13.00;99.90
4518;DHT22;2271;49.464;11.070;2023-04-25T14:50:52;13.00;99.90
4518;DHT22;2271;49.464;11.070;2023-04-25T14:53:18;13.00;99.90
4518;DHT22;2271;49.464;11.070;2023-04-25T14:55:43;13.00;99.90
4518;DHT22;2271;49.464;11.070;2023-04-25T14:58:09;13.10;99.90
4518;DHT22;2271;49.464;11.070;2023-04-25T15:00:35;13.10;99.90
4518;DHT22;2271;49.464;11.070;2023-04-25T15:03:00;13.00;99.90
4518;DHT22;2271;49.464;11.070;2023-04-25T15:05:26;12.80;99.90
4518;DHT22;2271;49.464;11.070;2023-04-25T15:07:52;12.80;99.90
4518;DHT22;2271;49.464;11.070;2023-04-25T15:10:18;12.80;99.90
4518;DHT22;2271;49.464;11.070;2023-04-25T15:12:44;12.80;99.90
4518;DHT22;2271;49.464;11.070;2023-04-25T15:15:10;12.80;99.90
4518;DHT22;2271;49.464;11.070;2023-04-25T15:17:43;12.80;99.90
4518;DHT22;2271;49.464;11.070;2023-04-25T15:20:11;12.70;99.90
4518;DHT22;2271;49.464;11.070;2023-04-25T15:22:38;12.80;99.90
4518;DHT22;2271;49.464;11.070;2023-04-25T15:25:04;12.90;99.90
4518;DHT22;2271;49.464;11.070;2023-04-25T15:27:30;13.00;99.90
4518;DHT22;2271;49.464;11.070;2023-04-25T15:29:56;13.10;99.90
4518;DHT22;2271;49.464;11.070;2023-04-25T15:32:21;13.10;99.90
4518;DHT22;2271;49.464;11.070;2023-04-25T15:34:48;13.10;99.90
4518;DHT22;2271;49.464;11.070;2023-04-25T15:37:15;13.00;99.90
4518;DHT22;2271;49.464;11.070;2023-04-25T15:39:40;13.00;99.90
4518;DHT22;2271;49.464;11.070;2023-04-25T15:42:07;12.90;99.90
4518;DHT22;2271;49.464;11.070;2023-04-25T15:44:32;12.80;99.90
4518;DHT22;2271;49.464;11.070;2023-04-25T15:46:58;12.80;99.90
4518;DHT22;2271;49.464;11.070;2023-04-25T15:49:24;12.70;99.90
4518;DHT22;2271;49.464;11.070;2023-04-25T15:51:50;12.70;99.90
4518;DHT22;2271;49.464;11.070;2023-04-25T15:54:17;12.80;99.90
4518;DHT22;2271;49.464;11.070;2023-04-25T15:56:42;12.90;99.90